Time;durP1;ratioP1;P1;durP2;ratioP2;P2;SDS_P1;SDS_P2;PMS_P1;PMS_P2;Temp;Humidity;BMP_temperature;BMP_pressure;BME280_temperature;BME280_humidity;BME280_pressure;Samples;Min_cycle;Max_cycle;Signal;HPM_P1;HPM_P2
2021/04/11 00:01:09;;;;;;;27.90;14.50;;;;;;;3.74;100.00;100874.25;5226435;28;20036;-79
2021/04/11 00:03:39;;;;;;;26.33;13.43;;;;;;;3.78;100.00;100876.53;5213120;28;20024;-79
2021/04/11 00:06:10;;;;;;;27.42;13.50;;;;;;;3.73;100.00;100880.53;5227802;28;20055;-79
2021/04/11 00:08:40;;;;;;;28.83;14.30;;;;;;;3.61;100.00;100877.88;5227459;28;20115;-77
2021/04/11 00:11:11;;;;;;;28.15;13.52;;;;;;;3.73;100.00;100873.41;5225818;28;20025;-79
2021/04/11 00:13:41;;;;;;;24.52;12.18;;;;;;;3.67;100.00;100857.13;5227185;28;20516;-79
2021/04/11 00:16:12;;;;;;;27.80;14.10;;;;;;;3.63;100.00;100856.53;5228450;28;20051;-79
2021/04/11 00:18:42;;;;;;;28.08;13.93;;;;;;;3.65;100.00;100886.41;5230490;28;20032;-79
2021/04/11 00:21:13;;;;;;;26.63;13.85;;;;;;;3.57;100.00;100891.50;5229469;28;20029;-79
2021/04/11 00:23:44;;;;;;;26.55;12.00;;;;;;;3.60;100.00;100880.63;5230778;28;20017;-77
2021/04/11 00:26:14;;;;;;;24.50;12.13;;;;;;;3.56;100.00;100866.75;5230341;28;20104;-79
2021/04/11 00:28:45;;;;;;;24.85;13.07;;;;;;;3.56;100.00;100855.28;5229853;28;20597;-79
2021/04/11 00:31:15;;;;;;;25.98;12.63;;;;;;;3.59;100.00;100855.06;5229368;28;20445;-79
2021/04/11 00:33:46;;;;;;;20.02;11.15;;;;;;;3.49;100.00;100860.25;5216769;28;20033;-77
2021/04/11 00:36:19;;;;;;;21.35;10.82;;;;;;;3.42;100.00;100869.66;5226864;28;20033;-77
2021/04/11 00:38:49;;;;;;;24.40;11.60;;;;;;;3.46;100.00;100862.28;5229417;28;20090;-79
2021/04/11 00:41:20;;;;;;;25.02;11.57;;;;;;;3.41;100.00;100867.09;5229108;28;20525;-77
2021/04/11 00:43:51;;;;;;;21.63;11.63;;;;;;;3.38;100.00;100869.06;5229030;28;20028;-79
2021/04/11 00:46:36;;;;;;;16.70;9.25;;;;;;;3.36;100.00;100873.66;5229709;28;20060;-79
2021/04/11 00:49:10;;;;;;;18.80;10.15;;;;;;;3.28;100.00;100868.06;5219479;28;20021;-78
2021/04/11 00:51:41;;;;;;;19.20;10.35;;;;;;;3.18;100.00;100860.97;5227872;28;20128;-79
2021/04/11 00:54:12;;;;;;;21.65;10.70;;;;;;;3.06;100.00;100865.38;5227520;28;20178;-79
2021/04/11 00:56:43;;;;;;;22.33;10.85;;;;;;;2.96;100.00;100875.00;5228871;28;20052;-79
2021/04/11 00:59:14;;;;;;;21.23;10.82;;;;;;;3.06;100.00;100873.31;5228570;28;20029;-79
2021/04/11 01:01:45;;;;;;;21.10;11.55;;;;;;;2.97;100.00;100874.91;5228373;28;20028;-76
2021/04/11 01:04:16;;;;;;;24.75;11.98;;;;;;;3.00;100.00;100877.28;5211160;28;20383;-78
2021/04/11 01:06:53;;;;;;;23.30;11.18;;;;;;;2.95;100.00;100876.78;5228016;28;20448;-78
2021/04/11 01:09:28;;;;;;;19.95;10.07;;;;;;;3.00;100.00;100868.50;5228717;28;20036;-78
2021/04/11 01:12:01;;;;;;;21.98;10.93;;;;;;;2.97;100.00;100871.41;5228170;28;20114;-77
2021/04/11 01:14:33;;;;;;;19.73;9.93;;;;;;;2.88;100.00;100880.03;5227460;28;20124;-79
2021/04/11 01:17:08;;;;;;;20.33;10.05;;;;;;;2.75;100.00;100878.31;5227327;28;20021;-79
2021/04/11 01:19:40;;;;;;;18.95;8.65;;;;;;;2.83;100.00;100883.88;5227361;28;20068;-78
2021/04/11 01:22:47;;;;;;;17.88;9.10;;;;;;;2.77;100.00;100883.50;5227197;28;20025;-78
2021/04/11 01:25:24;;;;;;;19.15;9.82;;;;;;;2.71;100.00;100882.16;5226852;28;20024;-79
2021/04/11 01:27:56;;;;;;;19.90;9.05;;;;;;;2.69;100.00;100880.56;5225131;28;20021;-78
2021/04/11 01:30:31;;;;;;;18.90;8.63;;;;;;;2.57;100.00;100891.13;5227309;28;20433;-79
2021/04/11 01:33:03;;;;;;;23.17;10.45;;;;;;;2.64;100.00;100883.56;5231527;28;20378;-77
2021/04/11 01:35:33;;;;;;;21.35;9.73;;;;;;;2.61;100.00;100891.75;5232293;28;20083;-78
2021/04/11 01:38:05;;;;;;;20.10;10.02;;;;;;;2.62;100.00;100893.44;5231957;28;20025;-78
2021/04/11 01:40:45;;;;;;;22.67;10.40;;;;;;;2.63;100.00;100887.19;5232481;28;20448;-79
2021/04/11 01:43:16;;;;;;;19.30;9.80;;;;;;;2.68;100.00;100890.34;5232749;28;20040;-79
2021/04/11 01:45:47;;;;;;;21.30;9.43;;;;;;;2.62;100.00;100887.31;5232062;28;20060;-78
2021/04/11 01:48:19;;;;;;;19.25;9.45;;;;;;;2.62;100.00;100893.44;5228968;28;20391;-78
2021/04/11 01:50:53;;;;;;;20.08;9.20;;;;;;;2.61;100.00;100902.34;5223485;28;20025;-79
2021/04/11 01:53:25;;;;;;;21.90;9.90;;;;;;;2.63;100.00;100904.88;5231777;28;20021;-78
2021/04/11 01:55:57;;;;;;;17.77;9.13;;;;;;;2.71;100.00;100907.78;5232073;28;20054;-79
2021/04/11 01:58:28;;;;;;;17.15;8.65;;;;;;;2.66;100.00;100913.44;5230976;28;20067;-77
2021/04/11 02:01:24;;;;;;;22.70;9.00;;;;;;;2.65;100.00;100913.53;5231728;28;20394;-77
2021/04/11 02:03:57;;;;;;;20.33;8.70;;;;;;;2.68;100.00;100908.88;5231512;28;20025;-77
2021/04/11 02:06:32;;;;;;;16.35;8.68;;;;;;;2.71;100.00;100916.59;5231245;28;20033;-78
2021/04/11 02:09:14;;;;;;;16.42;8.95;;;;;;;2.68;100.00;100915.97;5231417;28;20409;-76
2021/04/11 02:11:48;;;;;;;16.10;7.57;;;;;;;2.76;100.00;100914.47;5231138;28;20107;-78
2021/04/11 02:14:20;;;;;;;16.00;7.53;;;;;;;2.71;100.00;100915.72;5231184;28;20093;-79
2021/04/11 02:16:53;;;;;;;14.32;6.95;;;;;;;2.79;100.00;100914.22;5231400;28;20021;-79
2021/04/11 02:19:28;;;;;;;16.55;7.47;;;;;;;2.72;100.00;100901.56;5232098;28;20029;-79
2021/04/11 02:22:01;;;;;;;12.90;6.97;;;;;;;2.77;100.00;100905.53;5231432;28;20029;-79
2021/04/11 02:24:36;;;;;;;14.43;7.10;;;;;;;2.80;100.00;100900.00;5231700;28;20413;-78
2021/04/11 02:27:09;;;;;;;13.18;5.93;;;;;;;2.73;100.00;100913.84;5231256;28;20031;-78
2021/04/11 02:29:39;;;;;;;14.32;6.18;;;;;;;2.69;100.00;100931.75;5231202;28;20108;-79
2021/04/11 02:32:10;;;;;;;12.52;6.28;;;;;;;2.68;100.00;100929.22;5217235;28;20067;-78
2021/04/11 02:34:43;;;;;;;12.07;5.97;;;;;;;2.64;100.00;100931.25;5230063;28;20025;-79
2021/04/11 02:37:20;;;;;;;12.02;6.20;;;;;;;2.72;100.00;100934.19;5230909;28;20030;-79
2021/04/11 02:39:55;;;;;;;10.32;6.00;;;;;;;2.77;100.00;100944.44;5229916;28;20028;-78
2021/04/11 02:42:31;;;;;;;9.98;5.32;;;;;;;2.68;100.00;100937.16;5229358;28;20024;-78
2021/04/11 02:45:07;;;;;;;7.60;4.45;;;;;;;2.77;100.00;100934.69;5230323;28;20032;-79
2021/04/11 02:47:38;;;;;;;8.23;4.68;;;;;;;2.74;100.00;100934.06;5230759;28;20017;-78
2021/04/11 02:50:11;;;;;;;7.55;4.03;;;;;;;2.68;100.00;100924.78;5219438;28;20115;-78
2021/04/11 02:52:48;;;;;;;7.47;3.92;;;;;;;2.70;100.00;100935.25;5230985;28;20021;-78
2021/04/11 02:55:19;;;;;;;7.07;3.53;;;;;;;2.71;100.00;100934.28;5231519;28;20032;-77
2021/04/11 02:57:53;;;;;;;8.52;4.88;;;;;;;2.67;100.00;100930.19;5229061;28;20028;-79
2021/04/11 03:00:28;;;;;;;7.32;4.22;;;;;;;2.82;100.00;100929.06;5229737;28;20033;-78
2021/04/11 03:02:58;;;;;;;8.95;4.80;;;;;;;2.76;100.00;100933.00;5231492;28;20115;-77
2021/04/11 03:05:29;;;;;;;8.00;4.43;;;;;;;2.74;100.00;100942.00;5232275;28;20067;-78
2021/04/11 03:08:04;;;;;;;8.70;4.65;;;;;;;2.78;100.00;100944.31;5231264;28;20021;-79
2021/04/11 03:10:44;;;;;;;8.60;4.68;;;;;;;2.67;100.00;100938.97;5230896;28;20025;-77
2021/04/11 03:13:16;;;;;;;7.70;4.75;;;;;;;2.74;100.00;100947.31;5230016;28;20107;-77
2021/04/11 03:15:49;;;;;;;7.68;4.28;;;;;;;2.77;100.00;100952.41;5231096;28;20403;-77
2021/04/11 03:18:20;;;;;;;8.35;4.88;;;;;;;2.65;100.00;100963.88;5229012;28;20371;-79
2021/04/11 03:20:51;;;;;;;7.65;4.63;;;;;;;2.67;100.00;100957.53;5230590;28;20028;-77
2021/04/11 03:23:22;;;;;;;8.75;4.70;;;;;;;2.68;100.00;100961.00;5229795;28;20533;-78
2021/04/11 03:26:05;;;;;;;9.10;4.57;;;;;;;2.72;100.00;100942.13;5229126;28;20120;-79
2021/04/11 03:28:41;;;;;;;8.23;4.47;;;;;;;2.70;100.00;100946.69;5228678;28;20459;-79
2021/04/11 03:31:36;;;;;;;7.68;4.57;;;;;;;2.63;100.00;100958.69;5228861;28;20040;-77
2021/04/11 03:34:10;;;;;;;13.10;5.70;;;;;;;2.63;100.00;100963.16;5226813;28;20043;-79
2021/04/11 03:36:41;;;;;;;10.13;5.68;;;;;;;2.67;100.00;100968.13;5228007;28;20027;-78
2021/04/11 03:39:13;;;;;;;8.55;5.00;;;;;;;2.70;100.00;100967.88;5228290;28;20021;-78
2021/04/11 03:41:45;;;;;;;11.85;5.22;;;;;;;2.78;100.00;100976.13;5228166;28;20116;-76
2021/04/11 03:44:21;;;;;;;9.35;4.70;;;;;;;2.76;100.00;100969.22;5227131;28;20025;-78
2021/04/11 03:47:01;;;;;;;8.80;5.03;;;;;;;2.76;100.00;100958.63;5228621;28;20024;-79
2021/04/11 03:49:46;;;;;;;7.90;5.15;;;;;;;2.68;100.00;100963.66;5225273;28;20074;-79
2021/04/11 03:52:24;;;;;;;8.02;4.35;;;;;;;2.75;100.00;100949.00;5231576;28;20061;-78
2021/04/11 03:54:57;;;;;;;7.75;4.28;;;;;;;2.75;100.00;100957.78;5216629;28;20051;-79
2021/04/11 03:57:36;;;;;;;9.07;4.35;;;;;;;2.71;100.00;100966.94;5231206;28;20033;-77
2021/04/11 04:00:11;;;;;;;9.52;4.80;;;;;;;2.81;100.00;100986.50;5218123;28;20048;-79
2021/04/11 04:02:46;;;;;;;9.07;4.55;;;;;;;2.77;100.00;100995.63;5229224;28;20025;-78
2021/04/11 04:05:22;;;;;;;9.30;5.10;;;;;;;2.77;100.00;101003.56;5230477;28;20055;-78
2021/04/11 04:07:57;;;;;;;7.65;4.18;;;;;;;2.72;100.00;101002.22;5230778;28;20847;-79
2021/04/11 04:10:30;;;;;;;8.67;4.60;;;;;;;2.77;100.00;101005.38;5230025;28;20474;-79
2021/04/11 04:13:13;;;;;;;8.43;4.53;;;;;;;2.80;100.00;100999.84;5217263;28;20643;-79
2021/04/11 04:16:10;;;;;;;7.70;4.57;;;;;;;2.84;100.00;101006.59;5228326;28;20029;-78
2021/04/11 04:18:51;;;;;;;8.20;4.88;;;;;;;2.75;100.00;101016.06;5229917;28;20071;-79
2021/04/11 04:21:27;;;;;;;8.00;4.45;;;;;;;2.79;100.00;101014.06;5229495;28;20444;-77
2021/04/11 04:24:16;;;;;;;7.40;4.47;;;;;;;2.81;100.00;101012.13;5228771;28;20025;-77
2021/04/11 04:26:56;;;;;;;7.90;3.63;;;;;;;2.75;100.00;101016.06;5228118;28;20052;-78
2021/04/11 04:29:33;;;;;;;7.47;3.60;;;;;;;2.84;100.00;101011.91;5229468;28;20062;-78
2021/04/11 04:32:31;;;;;;;6.40;3.85;;;;;;;2.78;100.00;101028.25;5229621;28;20030;-79
2021/04/11 04:35:29;;;;;;;5.93;3.30;;;;;;;2.79;100.00;101029.94;5233464;28;20033;-78
2021/04/11 04:38:20;;;;;;;7.40;4.00;;;;;;;2.84;100.00;101043.72;5233076;28;20094;-79
2021/04/11 04:41:09;;;;;;;6.63;3.65;;;;;;;2.78;100.00;101039.69;5221249;28;20253;-78
2021/04/11 04:43:53;;;;;;;5.85;3.45;;;;;;;2.77;100.00;101053.91;5228861;28;20387;-78
2021/04/11 04:46:33;;;;;;;6.00;3.20;;;;;;;2.69;100.00;101056.25;5214938;28;20029;-78
2021/04/11 04:49:22;;;;;;;5.50;3.13;;;;;;;2.83;100.00;101042.03;5228429;28;20386;-78
2021/04/11 04:52:01;;;;;;;5.68;3.60;;;;;;;2.79;100.00;101046.69;5228487;28;20501;-79
2021/04/11 04:54:39;;;;;;;10.35;3.67;;;;;;;2.75;100.00;101050.50;5228364;28;20021;-78
2021/04/11 04:57:13;;;;;;;9.43;4.13;;;;;;;2.81;100.00;101041.28;5216389;28;20041;-78
2021/04/11 04:59:57;;;;;;;5.97;3.85;;;;;;;2.89;100.00;101036.25;5225206;28;20025;-78
2021/04/11 05:02:36;;;;;;;7.82;3.80;;;;;;;2.79;100.00;101036.09;5227763;28;20104;-78
2021/04/11 05:05:08;;;;;;;5.88;3.83;;;;;;;2.79;100.00;101048.50;5227475;28;20500;-78
2021/04/11 05:07:53;;;;;;;8.15;4.22;;;;;;;2.87;100.00;101061.19;5226962;28;20021;-78
2021/04/11 05:10:30;;;;;;;6.57;3.87;;;;;;;2.80;100.00;101055.47;5226615;28;20024;-78
2021/04/11 05:13:08;;;;;;;7.47;3.58;;;;;;;2.83;100.00;101052.63;5214231;28;20056;-78
2021/04/11 05:15:43;;;;;;;9.20;4.30;;;;;;;2.83;100.00;101056.13;5233571;28;20389;-79
2021/04/11 05:18:21;;;;;;;5.82;3.22;;;;;;;2.73;100.00;101068.34;5233131;28;20032;-77
2021/04/11 05:20:59;;;;;;;8.05;3.90;;;;;;;2.75;100.00;101082.31;5229002;28;20479;-79
2021/04/11 05:23:37;;;;;;;6.57;3.80;;;;;;;2.71;100.00;101091.44;5225473;28;20121;-78
2021/04/11 05:26:14;;;;;;;6.05;3.72;;;;;;;2.73;100.00;101101.94;5222542;28;20426;-77
2021/04/11 05:28:56;;;;;;;6.85;4.15;;;;;;;2.78;100.00;101105.09;5229376;28;20029;-79
2021/04/11 05:31:30;;;;;;;7.25;4.68;;;;;;;2.73;100.00;101109.88;5232533;28;20061;-78
2021/04/11 05:34:05;;;;;;;9.98;4.78;;;;;;;2.82;100.00;101099.47;5219785;28;20085;-78
2021/04/11 05:36:42;;;;;;;6.55;3.75;;;;;;;2.80;100.00;101106.66;5231677;28;20044;-79
2021/04/11 05:39:31;;;;;;;8.13;4.43;;;;;;;2.79;100.00;101112.09;5232988;28;20044;-79
2021/04/11 05:42:28;;;;;;;9.75;4.60;;;;;;;2.73;100.00;101116.03;5231666;28;20087;-79
2021/04/11 05:45:06;;;;;;;8.73;4.63;;;;;;;2.70;100.00;101110.94;5233344;28;20036;-84
2021/04/11 05:47:50;;;;;;;8.23;4.25;;;;;;;2.83;100.00;101110.91;5232407;28;20013;-79
2021/04/11 05:50:35;;;;;;;8.10;4.43;;;;;;;2.88;100.00;101111.44;5218617;28;20104;-79
2021/04/11 05:53:13;;;;;;;7.63;4.30;;;;;;;2.90;100.00;101120.09;5230977;28;20540;-79
2021/04/11 05:55:52;;;;;;;7.93;4.53;;;;;;;2.87;100.00;101116.84;5230335;28;20044;-80
2021/04/11 05:58:26;;;;;;;8.32;4.15;;;;;;;2.90;100.00;101124.56;5227625;28;20112;-80
2021/04/11 06:01:04;;;;;;;8.13;4.32;;;;;;;2.92;100.00;101125.31;5227659;28;20044;-79
2021/04/11 06:03:41;;;;;;;7.00;4.18;;;;;;;2.93;100.00;101127.84;5227961;28;20082;-79
2021/04/11 06:06:20;;;;;;;6.72;4.00;;;;;;;2.96;100.00;101124.13;5228105;28;20112;-77
2021/04/11 06:09:00;;;;;;;8.63;4.57;;;;;;;2.83;100.00;101132.13;5231530;28;20421;-78
2021/04/11 06:12:01;;;;;;;9.80;4.03;;;;;;;2.91;100.00;101135.03;5221770;28;20039;-77
2021/04/11 06:14:41;;;;;;;6.65;4.25;;;;;;;2.83;100.00;101122.34;5231215;28;20028;-78
2021/04/11 06:17:12;;;;;;;8.93;4.93;;;;;;;2.90;100.00;101128.06;5227378;28;20474;-78
2021/04/11 06:19:44;;;;;;;8.40;4.28;;;;;;;2.88;100.00;101135.28;5228938;28;20028;-77
2021/04/11 06:22:28;;;;;;;7.28;3.90;;;;;;;2.96;100.00;101148.84;5230238;28;20028;-76
2021/04/11 06:25:09;;;;;;;7.43;4.20;;;;;;;2.93;100.00;101158.81;5227518;28;20036;-76
2021/04/11 06:28:02;;;;;;;7.07;3.75;;;;;;;2.92;100.00;101165.06;5228341;28;20339;-77
2021/04/11 06:30:38;;;;;;;8.55;4.20;;;;;;;2.93;100.00;101175.56;5207243;28;20109;-77
2021/04/11 06:33:08;;;;;;;;;;;;;;;3.05;100.00;101187.06;5218272;28;20035;-74
2021/04/11 06:35:48;;;;;;;9.23;4.95;;;;;;;3.11;100.00;101191.94;5225117;28;19987;-76
2021/04/11 06:38:22;;;;;;;8.40;4.00;;;;;;;3.06;100.00;101191.41;5226929;28;20033;-77
2021/04/11 06:41:19;;;;;;;9.63;4.28;;;;;;;3.03;100.00;101189.00;5227864;28;20071;-78
2021/04/11 06:44:31;;;;;;;9.32;3.92;;;;;;;3.16;100.00;101186.28;5216378;28;20036;-78
2021/04/11 06:47:36;;;;;;;8.05;3.83;;;;;;;3.23;100.00;101190.22;5229627;28;20020;-77
2021/04/11 06:50:13;;;;;;;7.25;3.95;;;;;;;3.19;100.00;101186.94;5221317;28;20025;-77
2021/04/11 06:53:00;;;;;;;11.88;4.43;;;;;;;3.21;100.00;101194.78;5227694;28;20543;-78
2021/04/11 06:55:41;;;;;;;7.43;4.18;;;;;;;3.23;100.00;101195.53;5227959;28;20432;-79
2021/04/11 06:58:27;;;;;;;6.70;4.15;;;;;;;3.24;100.00;101199.88;5227619;28;20413;-78
2021/04/11 07:01:09;;;;;;;;;;;;;;;3.24;100.00;101192.75;5228932;28;20112;-77
2021/04/11 07:04:00;;;;;;;7.78;4.45;;;;;;;3.33;100.00;101200.06;5229259;28;19909;-80
2021/04/11 07:06:55;;;;;;;11.32;4.00;;;;;;;3.47;100.00;101198.22;5228075;28;20482;-81
2021/04/11 07:10:03;;;;;;;6.53;3.83;;;;;;;3.50;100.00;101196.16;5227267;28;20025;-80
2021/04/11 07:12:49;;;;;;;7.18;3.30;;;;;;;3.70;100.00;101200.00;5228329;28;20501;-77
2021/04/11 07:15:47;;;;;;;6.13;3.80;;;;;;;3.77;100.00;101205.72;5228215;28;20032;-79
2021/04/11 07:18:45;;;;;;;9.73;3.72;;;;;;;3.83;100.00;101210.56;5218662;28;20116;-80
2021/04/11 07:21:23;;;;;;;6.57;3.38;;;;;;;3.78;100.00;101204.75;5214920;28;20044;-80
2021/04/11 07:24:34;;;;;;;8.40;3.92;;;;;;;3.85;100.00;101217.44;5213346;28;20352;-78
2021/04/11 07:27:23;;;;;;;5.65;3.03;;;;;;;3.87;100.00;101214.69;5231106;28;20048;-80
2021/04/11 07:30:00;;;;;;;5.07;3.42;;;;;;;3.75;100.00;101208.47;5229801;28;20028;-81
2021/04/11 07:32:34;;;;;;;8.02;3.83;;;;;;;3.75;100.00;101213.78;5229997;28;20067;-79
2021/04/11 07:35:28;;;;;;;13.35;3.60;;;;;;;3.83;100.00;101223.84;5230902;28;20059;-79
2021/04/11 07:38:05;;;;;;;7.57;3.13;;;;;;;3.91;100.00;101234.72;5231544;28;20490;-79
2021/04/11 07:40:55;;;;;;;4.90;3.10;;;;;;;3.84;100.00;101242.28;5216755;28;20029;-79
2021/04/11 07:43:59;;;;;;;5.75;3.25;;;;;;;3.87;100.00;101252.69;5230110;28;20013;-81
2021/04/11 07:46:50;;;;;;;8.95;3.45;;;;;;;3.74;100.00;101257.19;5230186;28;20029;-79
2021/04/11 07:49:51;;;;;;;8.43;4.50;;;;;;;3.89;100.00;101250.75;5229674;28;20029;-78
2021/04/11 07:53:00;;;;;;;9.85;3.72;;;;;;;3.86;100.00;101244.81;5221149;28;20028;-80
2021/04/11 07:55:49;;;;;;;18.00;6.55;;;;;;;3.90;100.00;101246.31;5228944;28;20367;-78
2021/04/11 07:58:49;;;;;;;7.13;3.40;;;;;;;3.99;100.00;101258.06;5229711;28;20030;-80
2021/04/11 08:01:51;;;;;;;8.52;3.00;;;;;;;4.05;100.00;101266.41;5228136;28;20115;-80
2021/04/11 08:04:55;;;;;;;5.07;2.80;;;;;;;4.17;100.00;101259.34;5229316;28;20025;-80
2021/04/11 08:07:40;;;;;;;10.48;2.88;;;;;;;4.27;100.00;101265.66;5228582;28;20021;-80
2021/04/11 08:10:29;;;;;;;8.00;2.72;;;;;;;4.47;100.00;101271.25;5217129;28;20052;-80
2021/04/11 08:13:14;;;;;;;2.65;2.25;;;;;;;4.52;100.00;101285.03;5227773;28;20025;-77
2021/04/11 08:15:47;;;;;;;8.00;2.55;;;;;;;4.56;100.00;101284.69;5227155;28;20516;-80
2021/04/11 08:18:52;;;;;;;6.95;2.13;;;;;;;4.63;100.00;101285.09;5228643;28;20033;-80
2021/04/11 08:21:41;;;;;;;7.07;2.47;;;;;;;4.70;100.00;101283.66;5215868;28;20033;-77
2021/04/11 08:24:24;;;;;;;4.80;2.50;;;;;;;4.60;100.00;101277.34;5228778;28;20294;-78
2021/04/11 08:27:10;;;;;;;3.72;1.98;;;;;;;4.66;100.00;101279.53;5229020;28;20513;-80
2021/04/11 08:29:50;;;;;;;7.07;2.45;;;;;;;4.67;100.00;101284.75;5224502;28;20063;-80
2021/04/11 08:32:48;;;;;;;5.78;2.15;;;;;;;4.70;100.00;101296.94;5204685;28;719386;-76
2021/04/11 08:35:34;;;;;;;5.93;2.28;;;;;;;4.66;100.00;101306.09;5230579;28;20033;-78
2021/04/11 08:38:31;;;;;;;10.90;2.33;;;;;;;4.55;100.00;101309.56;5228559;28;20029;-76
2021/04/11 08:41:16;;;;;;;6.50;1.70;;;;;;;4.40;100.00;101308.91;5227069;28;20037;-78
2021/04/11 08:44:06;;;;;;;5.00;2.20;;;;;;;4.57;100.00;101312.13;5226511;28;20094;-79
2021/04/11 08:47:02;;;;;;;7.53;2.28;;;;;;;4.74;100.00;101313.50;5225104;28;20341;-79
2021/04/11 08:49:55;;;;;;;5.07;2.17;;;;;;;4.81;100.00;101320.03;5226688;28;20107;-79
2021/04/11 08:52:43;;;;;;;5.07;2.17;;;;;;;4.78;100.00;101328.25;5226682;28;20520;-76
2021/04/11 08:55:42;;;;;;;6.93;2.15;;;;;;;4.80;100.00;101331.63;5227609;28;20043;-78
2021/04/11 08:58:29;;;;;;;7.63;2.25;;;;;;;4.81;100.00;101328.84;5227596;28;20032;-79
2021/04/11 09:01:17;;;;;;;4.35;1.90;;;;;;;4.88;100.00;101321.28;5226541;28;20401;-79
2021/04/11 09:04:03;;;;;;;6.32;1.60;;;;;;;4.99;100.00;101331.06;5226560;28;20389;-79
2021/04/11 09:06:44;;;;;;;5.93;1.50;;;;;;;5.13;100.00;101331.69;5225797;28;20389;-79
2021/04/11 09:09:27;;;;;;;3.13;1.70;;;;;;;5.24;100.00;101330.03;5225574;28;20021;-81
2021/04/11 09:12:36;;;;;;;5.22;1.85;;;;;;;5.16;100.00;101339.44;5225748;28;20021;-78
2021/04/11 09:15:28;;;;;;;2.42;1.52;;;;;;;5.16;100.00;101331.44;5216138;28;20115;-79
2021/04/11 09:18:29;;;;;;;3.47;1.60;;;;;;;5.11;100.00;101335.44;5229354;28;20567;-76
2021/04/11 09:21:22;;;;;;;5.10;1.95;;;;;;;5.11;100.00;101338.09;5229981;28;20029;-78
2021/04/11 09:23:59;;;;;;;6.28;1.77;;;;;;;5.24;100.00;101348.63;5229602;28;20069;-79
2021/04/11 09:26:36;;;;;;;5.80;1.63;;;;;;;5.43;100.00;101355.06;5229172;28;20485;-78
2021/04/11 09:29:28;;;;;;;3.25;1.35;;;;;;;5.57;100.00;101361.09;5229864;28;20033;-79
2021/04/11 09:32:32;;;;;;;6.18;1.50;;;;;;;5.80;100.00;101353.94;5227080;28;20464;-79
2021/04/11 09:35:03;;;;;;;7.88;1.70;;;;;;;5.77;100.00;101372.81;5229136;28;20040;-78
2021/04/11 09:38:04;;;;;;;3.75;1.52;;;;;;;5.93;100.00;101378.66;5229824;28;20029;-79
2021/04/11 09:40:41;;;;;;;5.45;1.50;;;;;;;5.93;100.00;101376.84;5228897;28;20075;-77
2021/04/11 09:43:35;;;;;;;7.45;1.13;;;;;;;5.86;100.00;101382.75;5229896;28;20505;-79
2021/04/11 09:46:31;;;;;;;2.85;1.52;;;;;;;5.88;100.00;101394.97;5231086;28;20051;-78
2021/04/11 09:49:09;;;;;;;3.88;1.45;;;;;;;6.20;100.00;101388.91;5209332;28;20018;-77
2021/04/11 09:52:17;;;;;;;3.08;1.33;;;;;;;6.33;100.00;101394.94;5225938;28;20052;-80
2021/04/11 09:55:06;;;;;;;4.90;1.80;;;;;;;6.37;100.00;101392.84;5229006;28;20021;-79
2021/04/11 09:57:51;;;;;;;4.90;1.60;;;;;;;6.69;100.00;101390.19;5230105;28;20029;-76
2021/04/11 10:00:30;;;;;;;3.25;1.33;;;;;;;6.70;100.00;101390.06;5228489;28;20029;-79
2021/04/11 10:03:08;;;;;;;5.38;1.40;;;;;;;6.55;100.00;101382.50;5229114;28;20025;-81
2021/04/11 10:05:44;;;;;;;3.67;1.55;;;;;;;6.42;100.00;101386.16;5229075;28;20025;-78
2021/04/11 10:08:35;;;;;;;5.95;1.20;;;;;;;6.47;100.00;101391.13;5217527;28;20029;-78
2021/04/11 10:11:22;;;;;;;4.70;1.70;;;;;;;6.59;100.00;101400.78;5229013;28;20033;-76
2021/04/11 10:14:23;;;;;;;20.17;2.80;;;;;;;6.59;100.00;101399.94;5229103;28;20021;-80
2021/04/11 10:16:59;;;;;;;5.00;1.30;;;;;;;6.51;100.00;101407.72;5229536;28;20056;-79
2021/04/11 10:19:39;;;;;;;3.45;1.17;;;;;;;6.55;100.00;101410.00;5229379;28;20532;-80
2021/04/11 10:22:16;;;;;;;7.30;1.10;;;;;;;6.67;100.00;101406.31;5228679;28;20056;-76
2021/04/11 10:25:06;;;;;;;3.08;1.20;;;;;;;6.87;100.00;101415.31;5228549;28;20063;-79
2021/04/11 10:27:49;;;;;;;5.35;1.00;;;;;;;6.95;100.00;101402.19;5228941;28;20025;-77
2021/04/11 10:30:22;;;;;;;4.75;1.40;;;;;;;7.06;100.00;101406.63;5227285;28;20020;-79
2021/04/11 10:33:04;;;;;;;4.25;0.88;;;;;;;7.12;100.00;101415.91;5227752;28;20033;-80
2021/04/11 10:35:46;;;;;;;11.10;2.47;;;;;;;7.09;100.00;101414.38;5230420;28;20478;-79
2021/04/11 10:38:28;;;;;;;2.00;1.10;;;;;;;7.07;100.00;101394.97;5229321;28;20033;-80
2021/04/11 10:41:31;;;;;;;3.20;1.23;;;;;;;6.95;100.00;101412.84;5227474;28;20047;-78
2021/04/11 10:44:13;;;;;;;2.55;2.08;;;;;;;7.11;100.00;101412.41;5216661;28;20064;-80
2021/04/11 10:46:53;;;;;;;5.28;1.25;;;;;;;7.27;100.00;101404.78;5226201;28;20017;-79
2021/04/11 10:49:41;;;;;;;3.67;1.23;;;;;;;7.21;100.00;101424.00;5225540;28;20106;-77
2021/04/11 10:52:44;;;;;;;3.92;1.38;;;;;;;7.09;100.00;101424.19;5216820;28;20036;-80
2021/04/11 10:55:41;;;;;;;2.78;1.20;;;;;;;7.16;100.00;101431.53;5212466;28;20032;-80
2021/04/11 10:58:30;;;;;;;6.60;1.42;;;;;;;7.18;100.00;101428.75;5227294;28;20033;-77
2021/04/11 11:01:08;;;;;;;4.50;1.55;;;;;;;7.34;100.00;101426.47;5224335;28;20024;-80
2021/04/11 11:04:30;;;;;;;4.13;1.35;;;;;;;7.53;100.00;101429.25;5223232;28;20059;-78
2021/04/11 11:07:19;;;;;;;3.13;1.35;;;;;;;7.48;100.00;101435.94;5214581;28;20082;-79
2021/04/11 11:10:04;;;;;;;7.35;1.45;;;;;;;7.19;100.00;101433.13;5232706;28;20021;-81
2021/04/11 11:12:50;;;;;;;6.40;1.50;;;;;;;7.23;100.00;101437.22;5228769;28;20091;-80
2021/04/11 11:15:42;;;;;;;3.10;1.48;;;;;;;7.19;100.00;101438.44;5228715;28;20108;-80
2021/04/11 11:18:27;;;;;;;2.00;1.20;;;;;;;7.08;100.00;101431.38;5216950;28;20394;-80
2021/04/11 11:21:16;;;;;;;1.77;1.00;;;;;;;6.87;100.00;101451.81;5227277;28;20029;-80
2021/04/11 11:24:07;;;;;;;3.92;1.40;;;;;;;6.68;100.00;101455.16;5228269;28;20040;-80
2021/04/11 11:27:10;;;;;;;2.13;1.50;;;;;;;6.41;100.00;101453.75;5227742;28;20036;-78
2021/04/11 11:30:03;;;;;;;2.40;1.30;;;;;;;6.28;100.00;101453.09;5217910;28;20020;-79
2021/04/11 11:32:41;;;;;;;3.15;1.20;;;;;;;6.21;100.00;101460.69;5224726;28;20021;-80
2021/04/11 11:35:15;;;;;;;3.78;1.52;;;;;;;6.00;100.00;101473.06;5226923;28;20112;-80
2021/04/11 11:37:55;;;;;;;2.70;1.65;;;;;;;5.95;100.00;101465.44;5226816;28;20083;-80
2021/04/11 11:40:39;;;;;;;3.50;1.60;;;;;;;5.83;100.00;101463.72;5226651;28;20028;-80
2021/04/11 11:43:20;;;;;;;2.65;1.50;;;;;;;6.02;100.00;101470.28;5227346;28;20029;-79
2021/04/11 11:45:51;;;;;;;7.45;1.67;;;;;;;6.06;100.00;101466.41;5226686;28;20021;-80
2021/04/11 11:48:39;;;;;;;5.90;1.90;;;;;;;6.15;100.00;101471.00;5223499;28;20033;-80
2021/04/11 11:51:23;;;;;;;3.45;1.88;;;;;;;6.42;100.00;101478.59;5223500;28;20116;-79
2021/04/11 11:54:03;;;;;;;4.65;1.90;;;;;;;6.43;100.00;101477.66;5225980;28;20031;-79
2021/04/11 11:56:41;;;;;;;9.95;2.50;;;;;;;6.42;100.00;101483.94;5226758;28;20036;-80
2021/04/11 11:59:27;;;;;;;7.80;1.98;;;;;;;6.49;100.00;101483.31;5226190;28;20521;-78
2021/04/11 12:02:01;;;;;;;;;;;;;;;6.54;100.00;101492.78;5226267;28;20035;-79
2021/04/11 12:04:49;;;;;;;7.43;1.65;;;;;;;6.71;100.00;101489.56;5223141;28;19916;-79
2021/04/11 12:07:39;;;;;;;9.13;2.20;;;;;;;6.72;100.00;101492.09;5225808;28;20033;-77
2021/04/11 12:10:31;;;;;;;8.75;3.75;;;;;;;6.83;100.00;101493.91;5225327;28;20078;-79
2021/04/11 12:13:16;;;;;;;4.03;2.22;;;;;;;7.32;100.00;101495.13;5230702;28;20387;-76
2021/04/11 12:16:18;;;;;;;6.30;1.98;;;;;;;7.91;100.00;101499.88;5228151;28;20557;-79
2021/04/11 12:18:54;;;;;;;2.28;1.77;;;;;;;8.09;100.00;101501.94;5232000;28;20021;-78
2021/04/11 12:21:40;;;;;;;6.97;2.10;;;;;;;8.28;100.00;101505.53;5228443;28;20031;-80
2021/04/11 12:24:22;;;;;;;3.72;1.80;;;;;;;8.47;100.00;101511.94;5228499;28;20032;-79
2021/04/11 12:26:57;;;;;;;7.18;1.98;;;;;;;8.33;100.00;101515.78;5228633;28;20108;-79
2021/04/11 12:29:30;;;;;;;6.53;2.00;;;;;;;8.53;100.00;101512.25;5227408;28;20100;-80